Time;durP1;ratioP1;P1;durP2;ratioP2;P2;SDS_P1;SDS_P2;PMS_P1;PMS_P2;Temp;Humidity;BMP_temperature;BMP_pressure;BME280_temperature;BME280_humidity;BME280_pressure;Samples;Min_cycle;Max_cycle;Signal;HPM_P1;HPM_P2
2022/08/19 00:04:52;;;;;;;17.07;11.60;;;;;;;24.47;65.97;99898.53;3540355;81;35643;-85
2022/08/19 00:09:53;;;;;;;16.67;12.40;;;;;;;24.41;66.20;99897.00;3512278;82;98640;-85
2022/08/19 00:14:55;;;;;;;19.10;13.58;;;;;;;24.41;66.32;99899.05;3514991;82;51034;-86
2022/08/19 00:19:56;;;;;;;16.27;12.70;;;;;;;24.43;66.38;99897.31;3512973;81;98793;-85
2022/08/19 00:24:57;;;;;;;17.57;12.45;;;;;;;24.47;66.72;99896.47;3527690;82;36036;-86
2022/08/19 00:29:58;;;;;;;20.60;11.65;;;;;;;24.47;66.63;99890.08;3534580;82;98766;-84
2022/08/19 00:34:59;;;;;;;15.05;12.98;;;;;;;24.44;66.83;99885.41;3526371;83;34813;-84
2022/08/19 00:40:02;;;;;;;18.15;13.03;;;;;;;24.37;66.77;99878.16;3523507;82;98687;-85
2022/08/19 00:45:14;;;;;;;22.40;14.25;;;;;;;24.31;67.24;99883.52;3518159;83;26178;-84
2022/08/19 00:50:18;;;;;;;18.77;14.07;;;;;;;24.24;67.38;99879.05;3518108;82;98608;-85
2022/08/19 00:55:24;;;;;;;16.37;12.20;;;;;;;24.21;67.59;99882.84;3521617;82;34953;-85
2022/08/19 01:00:27;;;;;;;18.25;13.00;;;;;;;24.20;67.73;99884.72;3517569;82;98957;-83
2022/08/19 01:05:29;;;;;;;17.67;13.68;;;;;;;24.21;67.81;99870.18;3536601;82;34933;-84
2022/08/19 01:10:36;;;;;;;17.12;13.30;;;;;;;24.21;67.90;99865.17;3501216;82;98846;-85
2022/08/19 01:15:47;;;;;;;17.75;12.68;;;;;;;24.21;68.03;99877.83;3532294;81;35447;-86
2022/08/19 01:20:49;;;;;;;16.17;11.95;;;;;;;24.16;68.17;99869.44;3529206;81;98477;-86
2022/08/19 01:25:54;;;;;;;19.02;13.30;;;;;;;24.14;68.28;99866.31;3536371;81;34810;-86
2022/08/19 01:30:55;;;;;;;17.80;13.07;;;;;;;24.15;68.19;99867.11;3534905;81;25506;-85
2022/08/19 01:36:10;;;;;;;17.70;12.70;;;;;;;24.18;68.30;99871.75;3520356;81;98898;-86
2022/08/19 01:41:12;;;;;;;16.77;12.03;;;;;;;24.20;68.19;99869.25;3529442;81;26562;-85
2022/08/19 01:46:13;;;;;;;14.78;12.50;;;;;;;24.14;68.44;99865.56;3526552;81;98957;-86
2022/08/19 01:51:15;;;;;;;18.25;12.63;;;;;;;24.14;68.42;99860.70;3536008;81;34798;-85
2022/08/19 01:56:18;;;;;;;17.77;13.28;;;;;;;24.11;68.58;99846.22;3534196;81;99343;-84
2022/08/19 02:01:19;;;;;;;17.42;12.88;;;;;;;24.14;68.61;99838.84;3541468;81;54551;-86
2022/08/19 02:06:20;;;;;;;16.05;12.28;;;;;;;24.10;68.69;99840.45;3529711;81;99545;-85
2022/08/19 02:11:26;;;;;;;17.60;13.18;;;;;;;24.07;68.71;99828.75;3540780;81;34836;-86
2022/08/19 02:16:27;;;;;;;15.50;11.97;;;;;;;24.06;68.73;99823.60;3535755;81;99033;-85
2022/08/19 02:21:29;;;;;;;17.73;11.93;;;;;;;24.05;68.80;99820.03;3540291;82;34836;-86
2022/08/19 02:26:33;;;;;;;17.98;12.85;;;;;;;24.03;68.84;99811.28;3532012;82;99005;-86
2022/08/19 02:31:34;;;;;;;14.40;11.88;;;;;;;23.97;69.25;99804.03;3542532;82;25957;-86
2022/08/19 02:36:35;;;;;;;16.67;12.20;;;;;;;23.90;69.30;99795.34;3537745;81;99030;-84
2022/08/19 02:41:36;;;;;;;18.98;12.03;;;;;;;23.89;69.26;99791.59;3540192;81;35501;-85
2022/08/19 02:46:37;;;;;;;17.35;12.58;;;;;;;23.86;69.25;99800.98;3537194;82;99482;-85
2022/08/19 02:51:41;;;;;;;15.38;11.25;;;;;;;23.86;69.41;99800.98;3534737;81;34824;-86
2022/08/19 02:56:44;;;;;;;16.20;11.12;;;;;;;23.83;69.52;99794.91;3531177;81;98687;-86
2022/08/19 03:01:46;;;;;;;17.32;12.05;;;;;;;23.85;69.56;99787.54;3542685;81;34830;-85
2022/08/19 03:06:48;;;;;;;19.20;12.00;;;;;;;23.82;69.55;99789.14;3541490;82;98853;-86
2022/08/19 03:11:50;;;;;;;15.75;11.83;;;;;;;23.81;69.74;99777.75;3548680;81;34946;-86
2022/08/19 03:16:52;;;;;;;15.40;11.78;;;;;;;23.79;69.74;99776.04;3531607;81;98735;-86
2022/08/19 03:21:55;;;;;;;20.68;12.63;;;;;;;23.77;70.23;99774.34;3529451;82;25958;-84
2022/08/19 03:26:57;;;;;;;14.63;11.73;;;;;;;23.69;70.15;99759.89;3526845;81;98977;-85
2022/08/19 03:32:03;;;;;;;17.70;12.28;;;;;;;23.62;70.40;99771.52;3529218;82;35184;-84
2022/08/19 03:37:12;;;;;;;17.20;12.65;;;;;;;23.58;70.59;99774.34;3526561;82;99319;-84
2022/08/19 03:42:13;;;;;;;16.95;12.25;;;;;;;23.53;70.72;99775.80;3538171;82;35520;-85
2022/08/19 03:47:16;;;;;;;16.42;12.78;;;;;;;23.52;70.86;99766.44;3530510;82;99284;-88
2022/08/19 03:52:17;;;;;;;16.50;12.05;;;;;;;23.47;71.34;99767.10;3513172;82;26476;-84
2022/08/19 03:57:18;;;;;;;17.77;13.13;;;;;;;23.44;71.08;99758.25;3526258;81;99088;-85
2022/08/19 04:02:19;;;;;;;16.23;12.85;;;;;;;23.42;71.04;99773.37;3525592;81;35386;-86
2022/08/19 04:07:21;;;;;;;14.90;11.75;;;;;;;23.44;71.24;99775.86;3518861;81;98962;-86
2022/08/19 04:12:22;;;;;;;16.93;12.10;;;;;;;23.53;71.13;99788.44;3519427;82;35967;-84
2022/08/19 04:17:23;;;;;;;14.10;11.68;;;;;;;23.53;71.03;99787.03;3460832;82;99061;-86
2022/08/19 04:22:24;;;;;;;15.85;11.50;;;;;;;23.55;71.07;99794.98;3493043;83;36144;-86
2022/08/19 04:27:26;;;;;;;19.10;13.62;;;;;;;23.50;71.04;99799.24;3470206;83;99190;-88
2022/08/19 04:32:27;;;;;;;17.30;12.30;;;;;;;23.39;71.35;99780.76;3467759;83;35611;-87
2022/08/19 04:37:32;;;;;;;21.05;12.68;;;;;;;23.28;71.63;99765.70;3473872;82;99114;-87
2022/08/19 04:42:40;;;;;;;17.25;13.22;;;;;;;23.24;72.06;99761.67;3484677;83;35438;-86
2022/08/19 04:47:43;;;;;;;15.15;12.78;;;;;;;23.19;72.23;99785.41;3475944;83;99327;-89
2022/08/19 04:52:45;;;;;;;18.67;14.20;;;;;;;23.19;72.45;99818.48;3467044;83;35441;-87
2022/08/19 04:57:46;;;;;;;25.25;13.72;;;;;;;23.27;72.49;99805.63;3461236;84;98967;-87
2022/08/19 05:02:48;;;;;;;17.67;13.40;;;;;;;23.33;72.52;99793.88;3488414;83;35296;-86
2022/08/19 05:07:50;;;;;;;21.23;12.95;;;;;;;23.31;73.24;99772.53;3483414;83;99204;-87
2022/08/19 05:12:51;;;;;;;16.93;12.85;;;;;;;23.32;73.03;99772.67;3482286;83;34869;-87
2022/08/19 05:22:55;;;;;;;16.77;13.05;;;;;;;23.45;72.92;99784.45;3498140;82;34897;-87
2022/08/19 05:27:56;;;;;;;17.52;13.65;;;;;;;23.41;73.03;99766.22;3476166;82;99084;-86
2022/08/19 05:32:57;;;;;;;19.87;13.68;;;;;;;23.51;72.94;99775.51;3514815;82;36127;-88
2022/08/19 05:37:58;;;;;;;19.82;12.90;;;;;;;23.57;72.89;99765.77;3506541;81;98856;-84
2022/08/19 05:42:59;;;;;;;21.12;14.00;;;;;;;23.65;72.90;99752.92;3520194;82;35887;-87
2022/08/19 05:48:00;;;;;;;24.65;14.80;;;;;;;23.77;72.81;99751.88;3516150;81;184634;-88
2022/08/19 05:53:01;;;;;;;17.80;12.18;;;;;;;23.95;72.59;99753.12;3507985;82;35973;-87
2022/08/19 05:58:02;;;;;;;20.85;13.83;;;;;;;24.13;72.22;99761.39;3498510;82;99273;-88
2022/08/19 06:03:04;;;;;;;20.90;13.35;;;;;;;24.34;71.75;99760.19;3503467;82;35351;-85
2022/08/19 06:08:07;;;;;;;17.37;13.30;;;;;;;24.48;71.29;99760.81;3502132;81;99019;-87
2022/08/19 06:13:08;;;;;;;21.52;12.25;;;;;;;24.61;70.95;99748.02;3491023;82;36175;-87
2022/08/19 06:18:09;;;;;;;21.12;12.68;;;;;;;24.72;70.41;99754.43;3486386;82;99109;-84
2022/08/19 06:23:10;;;;;;;17.20;12.93;;;;;;;24.83;70.25;99761.62;3489892;83;35444;-86
2022/08/19 06:28:11;;;;;;;20.65;12.50;;;;;;;24.94;69.92;99761.79;3482076;81;99178;-83
2022/08/19 06:33:12;;;;;;;20.55;12.70;;;;;;;25.07;69.59;99752.39;3494829;82;34829;-85
2022/08/19 06:38:13;;;;;;;19.85;13.93;;;;;;;25.17;69.28;99745.36;3492761;82;99140;-85
2022/08/19 06:43:15;;;;;;;19.62;12.68;;;;;;;25.33;69.03;99750.47;3490839;82;34968;-90
2022/08/19 06:48:16;;;;;;;20.97;13.75;;;;;;;25.39;68.38;99743.61;3487841;82;99110;-89
2022/08/19 06:53:19;;;;;;;17.23;12.43;;;;;;;25.48;68.11;99742.06;3493774;83;34842;-87
2022/08/19 06:58:20;;;;;;;14.98;11.40;;;;;;;25.76;68.03;99756.45;3491286;82;99045;-89
2022/08/19 07:03:21;;;;;;;16.60;12.55;;;;;;;25.76;68.03;99756.45;3498282;82;34858;-87
2022/08/19 07:08:22;;;;;;;18.80;13.68;;;;;;;25.94;67.45;99772.44;3478527;82;99015;-86
2022/08/19 07:13:24;;;;;;;19.00;13.30;;;;;;;26.02;66.84;99770.75;3498405;81;35211;-85
2022/08/19 07:18:25;;;;;;;17.77;12.15;;;;;;;26.12;66.60;99766.49;3482623;81;99089;-87
2022/08/19 07:23:26;;;;;;;18.92;13.25;;;;;;;26.27;66.25;99780.47;3488889;83;35001;-87
2022/08/19 07:28:28;;;;;;;16.97;13.03;;;;;;;26.49;65.86;99796.94;3489952;82;99144;-85
2022/08/19 07:33:32;;;;;;;20.88;13.58;;;;;;;26.68;65.01;99797.38;3493840;83;39826;-88
2022/08/19 07:38:33;;;;;;;18.23;13.35;;;;;;;26.76;64.38;99804.13;3481185;82;99175;-87
2022/08/19 07:43:34;;;;;;;20.85;13.25;;;;;;;26.87;64.37;99804.97;3507926;82;34899;-88
2022/08/19 07:48:36;;;;;;;24.90;13.38;;;;;;;27.07;64.27;99810.50;3486337;82;99205;-86
2022/08/19 07:53:38;;;;;;;20.62;14.23;;;;;;;27.20;63.70;99814.34;3507344;81;25909;-88
2022/08/19 07:58:45;;;;;;;21.33;13.55;;;;;;;27.39;63.31;99816.87;3460297;80;2607292;-86
2022/08/19 08:09:11;;;;;;;19.25;14.50;;;;;;;27.80;62.16;99801.91;3469110;81;98982;-84
2022/08/19 08:14:12;;;;;;;21.40;14.20;;;;;;;28.04;61.62;99805.70;3510192;82;35095;-88
2022/08/19 08:19:15;;;;;;;20.77;13.60;;;;;;;28.29;60.96;99791.99;3531952;82;230999;-88
2022/08/19 08:24:20;;;;;;;20.37;15.18;;;;;;;28.50;60.40;99795.49;3542977;81;29199;-87
2022/08/19 08:29:25;;;;;;;21.25;14.70;;;;;;;28.78;60.25;99809.66;3539087;82;98825;-86
2022/08/19 08:34:26;;;;;;;16.10;14.15;;;;;;;28.91;59.54;99809.89;3544218;82;51443;-88
2022/08/19 08:39:28;;;;;;;19.65;15.18;;;;;;;29.25;58.98;99812.84;3539975;82;99060;-87
2022/08/19 08:44:40;;;;;;;19.23;15.00;;;;;;;29.59;58.61;99802.95;3542717;82;26598;-86
2022/08/19 08:49:56;;;;;;;17.37;14.25;;;;;;;30.13;57.63;99807.58;3533010;81;99004;-85
2022/08/19 08:55:02;;;;;;;16.70;12.75;;;;;;;30.71;57.16;99818.94;3543590;82;36388;-88
2022/08/19 09:00:09;;;;;;;18.85;13.55;;;;;;;31.34;55.63;99821.45;3539475;81;98530;-87
2022/08/19 09:05:12;;;;;;;21.62;14.05;;;;;;;31.94;54.42;99823.55;3544007;82;28401;-87
2022/08/19 09:10:30;;;;;;;23.02;14.93;;;;;;;32.34;53.17;99807.48;3539405;82;98884;-89
2022/08/19 09:15:41;;;;;;;20.08;14.83;;;;;;;32.89;52.16;99808.78;3539585;81;57884;-87
2022/08/19 09:20:42;;;;;;;24.20;15.72;;;;;;;33.48;50.55;99803.92;3384728;84;99295;-86
2022/08/19 09:25:43;;;;;;;22.67;14.05;;;;;;;33.99;49.25;99815.18;3532023;82;78119;-93
2022/08/19 09:30:44;;;;;;;18.62;14.50;;;;;;;34.38;47.55;99816.50;3505566;82;98527;-88
2022/08/19 09:35:46;;;;;;;18.07;14.75;;;;;;;34.47;47.14;99808.89;3532860;81;25915;-92
2022/08/19 09:40:47;;;;;;;23.45;14.47;;;;;;;34.61;45.29;99808.17;3528753;81;98668;-92
2022/08/19 09:45:48;;;;;;;23.42;14.63;;;;;;;34.77;45.27;99810.63;3536221;81;26253;-93
2022/08/19 09:51:08;;;;;;;16.77;14.93;;;;;;;35.02;44.10;99810.37;3540597;80;98436;-90
2022/08/19 09:56:13;;;;;;;17.77;13.72;;;;;;;35.23;43.87;99796.01;3523213;81;98861;-89
2022/08/19 10:01:24;;;;;;;15.58;13.60;;;;;;;35.80;43.75;99788.27;3509216;81;2316888;-86
2022/08/19 10:06:51;;;;;;;20.60;12.78;;;;;;;36.30;42.39;99796.13;3531505;82;107329;-94
2022/08/19 10:11:34;;;;;;;20.72;11.68;;;;;;;36.83;42.09;99789.04;3524516;82;54878;-89
2022/08/19 10:16:38;;;;;;;14.18;10.53;;;;;;;37.31;39.74;99800.77;3481857;82;2534013;-90
2022/08/19 10:21:40;;;;;;;17.15;13.08;;;;;;;37.05;37.95;99796.19;3507184;81;26583;-89
2022/08/19 10:26:44;;;;;;;15.00;11.25;;;;;;;36.96;37.48;99791.05;3487079;83;99135;-90
2022/08/19 10:31:44;;;;;;;14.05;10.80;;;;;;;36.84;37.43;99776.97;3491255;82;26506;-92
2022/08/19 10:36:45;;;;;;;15.13;10.43;;;;;;;37.44;37.86;99758.93;3503417;80;99082;-93
2022/08/19 10:41:47;;;;;;;15.15;11.33;;;;;;;37.64;36.76;99763.00;3434861;79;5472023;-94
2022/08/19 10:46:48;;;;;;;16.35;11.18;;;;;;;38.03;35.78;99766.57;3475786;83;99133;-93
2022/08/19 10:57:24;;;;;;;15.50;11.83;;;;;;;38.56;35.66;99759.84;3488612;82;120726;-93
2022/08/19 11:02:24;;;;;;;18.35;12.20;;;;;;;39.08;35.48;99761.52;3507342;82;46907;-92
2022/08/19 11:07:52;;;;;;;16.32;11.78;;;;;;;39.35;34.46;99771.06;3482354;81;99255;-92
2022/08/19 11:12:54;;;;;;;14.73;12.35;;;;;;;39.45;34.38;99758.92;3490546;82;48481;-91
2022/08/19 11:17:56;;;;;;;12.93;11.28;;;;;;;39.13;33.51;99764.80;3489437;82;98777;-89
2022/08/19 11:22:57;;;;;;;16.82;11.60;;;;;;;38.67;33.23;99772.31;3506283;81;26009;-88
2022/08/19 11:27:58;;;;;;;16.00;12.53;;;;;;;37.94;33.26;99767.19;3485587;83;98722;-90
2022/08/19 11:33:00;;;;;;;14.38;12.10;;;;;;;37.71;33.97;99767.19;3495656;83;25963;-90
2022/08/19 11:38:02;;;;;;;16.48;12.30;;;;;;;37.65;34.01;99755.91;3456804;82;2265278;-92
2022/08/19 11:43:04;;;;;;;14.25;11.45;;;;;;;37.40;34.73;99765.73;3480280;81;25912;-89
2022/08/19 11:48:05;;;;;;;15.43;11.28;;;;;;;37.79;34.53;99774.43;3484467;81;99372;-91
2022/08/19 11:53:09;;;;;;;13.00;10.50;;;;;;;37.69;33.66;99787.87;3503096;81;25877;-93
2022/08/19 11:58:12;;;;;;;15.70;10.48;;;;;;;37.60;33.92;99778.42;3473979;83;99126;-93
2022/08/19 12:03:14;;;;;;;15.05;10.70;;;;;;;37.69;33.78;99780.69;3493883;81;67487;-90
2022/08/19 12:08:15;;;;;;;14.87;9.95;;;;;;;37.51;33.20;99783.32;3469820;81;98637;-89
2022/08/19 12:13:18;;;;;;;14.03;9.53;;;;;;;37.17;33.87;99798.80;3494570;81;25973;-87
2022/08/19 12:18:19;;;;;;;13.15;9.13;;;;;;;36.90;33.49;99809.78;3513149;81;99079;-92
2022/08/19 12:23:20;;;;;;;12.23;9.18;;;;;;;36.40;33.96;99795.64;3542165;82;49555;-95
2022/08/19 12:28:24;;;;;;;16.67;10.38;;;;;;;36.33;34.44;99790.67;3529070;79;98813;-89
2022/08/19 12:33:27;;;;;;;15.90;10.63;;;;;;;36.25;34.25;99799.16;3540185;82;53130;-93
2022/08/19 12:38:28;;;;;;;14.87;11.50;;;;;;;36.07;34.63;99799.55;3527467;82;98751;-94
2022/08/19 12:43:30;;;;;;;18.77;11.08;;;;;;;36.09;34.98;99796.90;3531798;82;54902;-94
2022/08/19 12:48:33;;;;;;;14.20;9.83;;;;;;;36.33;35.60;99798.49;3522420;82;99105;-88
2022/08/19 12:53:34;;;;;;;16.23;12.77;;;;;;;36.26;35.53;99811.49;3522984;81;25792;-87
2022/08/19 12:58:35;;;;;;;15.35;13.28;;;;;;;35.75;36.35;99806.38;3518727;82;99312;-94
2022/08/19 13:03:37;;;;;;;14.63;12.60;;;;;;;35.38;37.38;99806.94;3536535;81;25871;-89
2022/08/19 13:08:38;;;;;;;22.07;14.20;;;;;;;34.96;37.86;99817.55;3525855;81;99257;-95
2022/08/19 13:13:46;;;;;;;20.48;14.47;;;;;;;34.52;38.64;99817.22;3537852;82;25916;-95
2022/08/19 13:18:49;;;;;;;17.23;13.78;;;;;;;34.29;39.15;99820.50;3494914;82;99351;-91
2022/08/19 13:23:51;;;;;;;17.60;13.53;;;;;;;34.05;39.71;99815.07;3487347;83;26824;-89
2022/08/19 13:34:13;;;;;;;16.57;13.80;;;;;;;34.00;40.11;99826.70;3485182;83;26671;-92
2022/08/19 13:39:14;;;;;;;17.35;13.90;;;;;;;33.87;40.27;99813.11;3488310;82;99330;-92
2022/08/19 13:44:19;;;;;;;20.90;14.23;;;;;;;33.62;40.38;99814.00;3510385;81;25849;-91
2022/08/19 13:49:22;;;;;;;15.80;12.88;;;;;;;33.53;40.56;99823.67;3497752;81;99190;-88
2022/08/19 13:54:23;;;;;;;17.92;14.03;;;;;;;33.30;40.90;99814.77;3500179;81;40889;-89
2022/08/19 13:59:25;;;;;;;17.98;13.78;;;;;;;33.30;41.14;99819.05;3491184;83;98966;-93
2022/08/19 14:04:26;;;;;;;18.60;15.03;;;;;;;33.32;41.22;99817.08;3495618;83;40393;-90
2022/08/19 14:09:27;;;;;;;18.65;14.43;;;;;;;33.35;41.26;99818.85;3495949;82;98884;-89
2022/08/19 14:14:28;;;;;;;19.87;14.50;;;;;;;33.20;41.17;99813.66;3504078;81;26613;-89
2022/08/19 14:19:30;;;;;;;16.50;14.73;;;;;;;33.09;41.43;99819.58;3517525;81;99470;-86
2022/08/19 14:24:31;;;;;;;20.37;15.15;;;;;;;32.90;41.37;99811.75;3516882;82;34889;-90
2022/08/19 14:29:32;;;;;;;18.35;14.90;;;;;;;32.90;42.02;99829.52;3514691;82;98589;-90
2022/08/19 14:34:37;;;;;;;20.43;15.80;;;;;;;32.96;42.05;99835.89;3523444;82;34869;-88
2022/08/19 14:39:36;;;;;;;20.75;15.65;;;;;;;32.82;42.14;99834.31;3532691;82;99120;-92
2022/08/19 14:44:38;;;;;;;21.60;15.45;;;;;;;32.70;42.52;99833.69;3519013;82;35048;-89
2022/08/19 14:49:39;;;;;;;18.92;15.65;;;;;;;32.77;42.78;99830.25;3536065;82;99066;-88
2022/08/19 14:54:43;;;;;;;17.87;14.97;;;;;;;32.73;42.74;99847.51;3537316;82;27070;-92
2022/08/19 14:59:44;;;;;;;26.07;16.97;;;;;;;32.47;43.17;99841.73;3518509;82;98932;-92
2022/08/19 15:04:45;;;;;;;19.15;16.10;;;;;;;32.21;43.38;99844.42;3532044;82;36076;-89
2022/08/19 15:09:50;;;;;;;17.77;15.23;;;;;;;32.03;43.79;99832.39;3528763;81;98583;-88
2022/08/19 15:14:51;;;;;;;18.37;14.30;;;;;;;31.99;44.03;99833.34;3533280;81;26534;-93
2022/08/19 15:19:52;;;;;;;15.55;13.10;;;;;;;31.92;44.22;99838.23;3512099;82;98810;-89
2022/08/19 15:24:54;;;;;;;20.72;14.13;;;;;;;31.80;44.67;99830.48;3532547;81;34939;-89
2022/08/19 15:29:56;;;;;;;19.67;13.75;;;;;;;31.77;44.69;99830.12;3527183;81;97916;-91
2022/08/19 15:34:57;;;;;;;19.05;11.97;;;;;;;31.54;44.74;99823.14;3532703;81;25910;-89
2022/08/19 15:39:58;;;;;;;17.90;13.28;;;;;;;31.46;44.97;99825.05;3527817;81;98525;-89
2022/08/19 15:44:59;;;;;;;17.43;12.43;;;;;;;31.42;45.10;99818.89;3535823;81;29316;-91
2022/08/19 15:50:02;;;;;;;15.98;11.90;;;;;;;31.43;45.03;99816.83;3527385;81;98584;-90
2022/08/19 15:55:06;;;;;;;17.87;12.93;;;;;;;31.26;45.13;99821.91;3528219;81;26006;-89
2022/08/19 16:10:46;;;;;;;16.55;12.40;;;;;;;30.70;46.19;99823.08;3513373;82;98359;-89
2022/08/19 16:15:47;;;;;;;17.98;12.98;;;;;;;30.55;46.73;99831.17;3504717;82;36415;-91
2022/08/19 16:20:48;;;;;;;17.90;14.20;;;;;;;30.50;46.96;99821.25;3500919;82;98368;-92
2022/08/19 16:25:49;;;;;;;18.15;13.43;;;;;;;30.47;47.21;99828.01;3514705;81;42852;-92
2022/08/19 16:30:50;;;;;;;22.93;15.58;;;;;;;30.33;47.56;99830.55;3507347;81;98575;-91
2022/08/19 16:35:52;;;;;;;24.85;18.05;;;;;;;30.24;48.08;99834.48;3502370;81;35108;-89
2022/08/19 16:40:55;;;;;;;27.52;18.82;;;;;;;30.10;48.74;99839.06;3525674;81;98502;-89
2022/08/19 16:45:57;;;;;;;24.77;19.10;;;;;;;29.96;49.36;99850.12;3528092;82;99258;-90
2022/08/19 16:50:59;;;;;;;24.02;19.23;;;;;;;29.86;49.72;99858.13;3528176;81;36230;-88
2022/08/19 16:56:01;;;;;;;23.07;18.57;;;;;;;29.76;49.97;99866.81;3522628;82;101921;-87
2022/08/19 17:01:06;;;;;;;22.77;19.85;;;;;;;29.53;50.19;99865.98;3538581;80;35746;-87
2022/08/19 17:06:15;;;;;;;21.77;18.23;;;;;;;29.40;50.52;99871.41;3523250;82;104929;-91
2022/08/19 17:11:17;;;;;;;24.70;18.98;;;;;;;29.23;50.83;99876.34;3530092;81;26012;-92
2022/08/19 17:16:23;;;;;;;23.85;17.95;;;;;;;29.04;51.32;99876.77;3535674;81;99330;-89
2022/08/19 17:21:30;;;;;;;27.27;18.87;;;;;;;28.91;52.19;99883.55;3526637;81;51377;-87
2022/08/19 17:26:32;;;;;;;24.70;19.73;;;;;;;28.82;52.30;99889.50;3513332;81;99000;-89
2022/08/19 17:31:33;;;;;;;21.75;17.45;;;;;;;28.76;52.57;99884.47;3530682;82;25943;-87
2022/08/19 17:36:34;;;;;;;26.50;19.77;;;;;;;28.72;53.42;99894.61;3521930;82;99095;-87
2022/08/19 17:41:35;;;;;;;23.20;16.35;;;;;;;28.64;53.29;99909.17;3532086;82;34831;-86
2022/08/19 17:46:36;;;;;;;25.88;20.52;;;;;;;28.46;53.51;99908.87;3522528;81;99036;-86
2022/08/19 17:51:44;;;;;;;29.70;22.35;;;;;;;28.25;53.77;99892.72;3524297;82;144046;-92
2022/08/19 17:56:46;;;;;;;23.77;19.55;;;;;;;28.07;54.15;99899.47;3509443;82;99070;-91
2022/08/19 18:01:47;;;;;;;27.90;19.85;;;;;;;27.94;54.36;99907.00;3502852;82;26169;-87
2022/08/19 18:06:49;;;;;;;31.68;23.90;;;;;;;27.90;54.89;99914.95;3523271;82;99086;-87
2022/08/19 18:11:51;;;;;;;31.37;23.40;;;;;;;27.76;55.09;99919.36;3527204;82;34918;-88
2022/08/19 18:16:54;;;;;;;29.92;23.57;;;;;;;27.56;55.53;99925.92;3527763;81;99034;-86
2022/08/19 18:21:54;;;;;;;34.25;25.68;;;;;;;27.43;56.12;99926.23;3507663;82;26000;-90
2022/08/19 18:26:56;;;;;;;33.42;26.07;;;;;;;27.32;56.48;99928.35;3505971;82;99291;-87
2022/08/19 18:31:57;;;;;;;32.38;25.57;;;;;;;27.25;56.91;99930.20;3489775;82;34839;-87
2022/08/19 18:36:58;;;;;;;34.27;24.77;;;;;;;27.15;57.26;99930.25;3497156;82;99074;-87
2022/08/19 18:52:38;;;;;;;39.78;26.73;;;;;;;26.95;58.23;99933.16;3430715;82;5510382;-88
2022/08/19 18:57:40;;;;;;;29.90;24.50;;;;;;;26.85;58.78;99931.78;3489263;82;99476;-93
2022/08/19 19:02:44;;;;;;;38.90;28.60;;;;;;;26.84;59.23;99931.65;3496544;82;43680;-86
2022/08/19 19:07:44;;;;;;;30.75;24.45;;;;;;;26.77;59.24;99932.11;3482094;82;98688;-88
2022/08/19 19:12:46;;;;;;;37.55;29.52;;;;;;;26.61;59.75;99929.89;3492071;82;32831;-91
2022/08/19 19:17:47;;;;;;;40.10;28.85;;;;;;;26.55;59.95;99935.33;3484946;82;98678;-92
2022/08/19 19:23:04;;;;;;;36.77;27.52;;;;;;;26.47;60.28;99945.47;3508772;82;32630;-95
2022/08/19 19:33:59;;;;;;;34.23;26.57;;;;;;;26.42;61.11;99944.14;3023013;87;5501498;-82
2022/08/19 19:39:00;;;;;;;37.93;29.00;;;;;;;26.38;61.38;99937.94;3399740;84;99255;-83
2022/08/19 19:44:03;;;;;;;37.50;29.35;;;;;;;26.41;61.65;99945.42;3445016;84;33647;-83
2022/08/19 19:49:05;;;;;;;39.30;29.23;;;;;;;26.39;61.62;99965.53;3328167;87;99048;-83
2022/08/19 19:54:11;;;;;;;36.88;30.02;;;;;;;26.28;61.69;99973.24;3447583;82;27537;-83
2022/08/19 19:59:12;;;;;;;35.30;28.30;;;;;;;26.28;62.13;99971.04;3448945;83;99022;-83
2022/08/19 20:04:14;;;;;;;35.68;29.65;;;;;;;26.26;62.48;99973.59;3469134;83;27401;-83
2022/08/19 20:09:16;;;;;;;35.08;27.62;;;;;;;26.18;62.46;99973.86;3443573;83;98661;-81
2022/08/19 20:14:26;;;;;;;31.65;25.77;;;;;;;26.13;62.87;99974.56;3408560;84;27336;-81
2022/08/19 20:19:33;;;;;;;34.83;27.32;;;;;;;26.04;63.33;99980.36;3414373;84;98498;-81
2022/08/19 20:24:35;;;;;;;31.68;25.60;;;;;;;25.97;63.54;99994.86;3404974;84;34341;-80
2022/08/19 20:29:37;;;;;;;27.00;22.58;;;;;;;25.94;63.77;100008.55;3404131;84;98711;-82
2022/08/19 20:34:39;;;;;;;28.75;23.70;;;;;;;25.90;64.50;100006.53;3443078;83;32458;-82
2022/08/19 20:39:40;;;;;;;28.60;23.75;;;;;;;25.95;64.44;100011.51;3504720;82;99085;-83
2022/08/19 20:44:43;;;;;;;26.40;23.40;;;;;;;25.90;64.63;100019.22;3477228;81;2526583;-82
2022/08/19 20:49:44;;;;;;;30.77;24.65;;;;;;;25.83;64.75;100028.10;3505292;82;99358;-83
2022/08/19 20:54:45;;;;;;;29.82;24.65;;;;;;;25.82;65.03;100016.69;3488547;83;32497;-83
2022/08/19 20:59:46;;;;;;;31.80;26.25;;;;;;;25.74;65.29;100048.73;3508319;83;98872;-82
2022/08/19 21:04:47;;;;;;;29.27;25.65;;;;;;;25.71;65.79;100040.48;3516174;82;32386;-83
2022/08/19 21:09:51;;;;;;;27.95;22.98;;;;;;;25.57;66.37;100028.59;3508203;82;98878;-82
2022/08/19 21:14:51;;;;;;;29.60;26.33;;;;;;;25.55;66.69;100017.04;3508140;83;26376;-83
2022/08/19 21:19:52;;;;;;;28.02;23.73;;;;;;;25.37;68.52;100021.47;3505333;82;98921;-83
2022/08/19 21:24:53;;;;;;;27.45;24.43;;;;;;;25.25;68.97;100002.21;3512030;83;33733;-84
2022/08/19 21:29:55;;;;;;;29.35;25.43;;;;;;;25.29;68.94;99987.27;3505087;82;99029;-84
2022/08/19 21:34:56;;;;;;;27.90;23.77;;;;;;;25.36;68.99;99999.58;3491793;83;37357;-84
2022/08/19 21:39:57;;;;;;;34.90;30.35;;;;;;;25.28;69.44;100018.77;3480419;82;99185;-83
2022/08/19 21:44:58;;;;;;;32.27;28.77;;;;;;;25.12;70.61;100031.91;3484944;83;33202;-85
2022/08/19 21:49:59;;;;;;;41.23;28.90;;;;;;;24.85;72.23;100044.19;3485032;82;99074;-84
2022/08/19 21:55:01;;;;;;;34.05;28.45;;;;;;;24.72;72.70;100041.50;3467376;83;33514;-84
2022/08/19 22:00:08;;;;;;;31.15;27.40;;;;;;;24.57;73.77;100051.94;3486999;83;99041;-85
2022/08/19 22:05:10;;;;;;;32.08;28.57;;;;;;;24.52;74.14;100036.47;3506899;82;32484;-84
2022/08/19 22:10:11;;;;;;;39.63;31.37;;;;;;;24.64;73.92;100016.41;3501303;82;99390;-85
2022/08/19 22:15:14;;;;;;;28.30;24.57;;;;;;;24.62;74.11;100005.63;3504523;83;32761;-84
2022/08/19 22:20:20;;;;;;;27.87;23.83;;;;;;;24.41;74.75;99995.45;3496282;83;99149;-84
2022/08/19 22:25:28;;;;;;;30.92;25.75;;;;;;;24.44;74.72;99986.07;3511114;82;32513;-84
2022/08/19 22:30:31;;;;;;;29.23;25.72;;;;;;;24.55;74.64;99972.22;3507488;82;98884;-84
2022/08/19 22:35:36;;;;;;;32.33;25.08;;;;;;;24.60;74.52;99953.91;3513979;82;27378;-84
2022/08/19 22:40:42;;;;;;;28.73;23.90;;;;;;;24.64;74.45;99953.85;3493664;83;98871;-85
2022/08/19 22:45:44;;;;;;;29.45;25.52;;;;;;;24.68;74.50;99962.13;3500245;82;32498;-84
2022/08/19 22:55:51;;;;;;;35.03;30.30;;;;;;;24.70;74.37;99968.83;3467886;82;26580;-84
2022/08/19 23:00:52;;;;;;;29.52;26.33;;;;;;;24.68;74.38;99974.14;3497093;82;98569;-85
2022/08/19 23:05:55;;;;;;;33.28;27.55;;;;;;;24.58;74.72;99986.74;3500975;82;27281;-85
2022/08/19 23:10:56;;;;;;;31.97;25.80;;;;;;;24.62;74.87;99993.62;3498651;82;27428;-85
2022/08/19 23:15:58;;;;;;;30.62;26.68;;;;;;;24.63;75.10;99980.45;3505456;82;98925;-84
2022/08/19 23:21:00;;;;;;;28.75;25.57;;;;;;;24.63;75.20;100000.14;3511222;83;28156;-85
2022/08/19 23:26:01;;;;;;;29.87;25.00;;;;;;;24.67;75.20;100011.20;3502203;82;99164;-85
2022/08/19 23:31:03;;;;;;;27.87;24.90;;;;;;;24.67;75.11;100014.81;3476823;83;32425;-85
2022/08/19 23:36:10;;;;;;;28.47;25.32;;;;;;;24.67;75.13;100028.88;3494684;82;99301;-85
2022/08/19 23:41:13;;;;;;;30.43;24.72;;;;;;;24.65;75.26;100017.34;3498708;82;32510;-85
2022/08/19 23:46:17;;;;;;;28.85;25.25;;;;;;;24.68;75.52;100011.38;3502344;83;99600;-84
2022/08/19 23:51:19;;;;;;;28.27;24.67;;;;;;;24.65;75.00;100017.34;3505928;83;26002;-85
2022/08/19 23:56:20;;;;;;;30.15;25.12;;;;;;;24.62;75.54;100010.50;3493785;83;98929;-85
